createdAt,value
2022-10-16T00:01:20.750Z,99826.28
2022-10-16T00:06:19.394Z,99843.25
2022-10-16T00:11:24.844Z,99842.41
2022-10-16T00:16:21.435Z,99832.28
2022-10-16T00:21:20.781Z,99850.13
2022-10-16T00:26:17.975Z,99849.03
2022-10-16T00:31:15.259Z,99843.03
2022-10-16T00:36:15.006Z,99839.69
2022-10-16T00:41:17.572Z,99841.34
2022-10-16T00:46:22.291Z,99841.09
2022-10-16T00:51:26.456Z,99847.16
2022-10-16T00:56:23.051Z,99850.53
2022-10-16T01:01:19.425Z,99844.88
2022-10-16T01:06:52.992Z,99845.22
2022-10-16T01:12:02.517Z,99866.81
2022-10-16T01:17:14.132Z,99868.25
2022-10-16T01:22:10.673Z,99869.34
2022-10-16T01:27:10.782Z,99864.84
2022-10-16T01:32:21.505Z,99871.28
2022-10-16T01:37:28.416Z,99882.75
2022-10-16T01:42:36.039Z,99896.66
2022-10-16T01:47:32.804Z,99900.44
2022-10-16T01:52:30.659Z,99895.06
2022-10-16T01:57:29.587Z,99891.13
2022-10-16T02:02:29.467Z,99895.19
2022-10-16T02:07:26.143Z,99893.03
2022-10-16T02:12:28.424Z,99890.81
2022-10-16T02:17:25.288Z,99882.09
2022-10-16T02:22:37.144Z,99885.13
2022-10-16T02:27:53.774Z,99882.47
2022-10-16T02:32:51.919Z,99884.38
2022-10-16T02:37:50.417Z,99883.78
2022-10-16T02:42:51.696Z,99884.38
2022-10-16T02:47:48.537Z,99894.47
2022-10-16T02:52:44.904Z,99909.34
2022-10-16T02:57:41.391Z,99899.56
2022-10-16T03:02:38.049Z,99916.94
2022-10-16T03:07:34.352Z,99919.38
2022-10-16T03:12:30.998Z,99930.47
2022-10-16T03:17:27.719Z,99909.16
2022-10-16T03:22:24.262Z,99926.38
2022-10-16T03:27:20.625Z,99921.63
2022-10-16T03:32:16.982Z,99909.03
2022-10-16T03:37:13.643Z,99913.38
2022-10-16T03:42:10.054Z,99936.06
2022-10-16T03:47:06.378Z,99925.84
2022-10-16T03:52:02.730Z,99932.84
2022-10-16T03:56:59.082Z,99933.16
2022-10-16T04:01:55.417Z,99930.50
2022-10-16T04:06:52.198Z,99925.19
2022-10-16T04:11:48.524Z,99925.75
2022-10-16T04:16:44.853Z,99925.19
2022-10-16T04:21:41.517Z,99915.66
2022-10-16T04:26:38.190Z,99929.09
2022-10-16T04:31:34.764Z,99937.84
2022-10-16T04:36:31.600Z,99954.38
2022-10-16T04:41:27.897Z,99957.75
2022-10-16T04:46:24.227Z,99946.94
2022-10-16T04:51:20.711Z,99957.31
2022-10-16T04:56:17.179Z,99963.13
2022-10-16T05:01:14.352Z,99979.28
2022-10-16T05:06:10.797Z,99969.56
2022-10-16T05:11:07.122Z,99970.97
2022-10-16T05:16:03.490Z,99974.06
2022-10-16T05:20:59.839Z,99956.06
2022-10-16T05:25:59.081Z,99967.19
2022-10-16T05:30:55.537Z,99976.97
2022-10-16T05:35:52.686Z,99969.56
2022-10-16T05:40:57.113Z,99968.69
2022-10-16T05:46:02.565Z,99961.41
2022-10-16T05:51:07.938Z,99982.72
2022-10-16T05:56:05.675Z,99995.06
2022-10-16T06:01:08.087Z,100012.22
2022-10-16T06:06:16.122Z,99999.25
2022-10-16T06:11:18.045Z,99999.97
2022-10-16T06:16:14.398Z,100020.31
2022-10-16T06:21:14.990Z,100025.94
2022-10-16T06:26:14.248Z,100017.25
2022-10-16T06:31:11.958Z,100023.44
2022-10-16T06:36:14.251Z,100017.16
2022-10-16T06:41:13.354Z,100033.31
2022-10-16T06:46:12.406Z,100045.66
2022-10-16T06:51:17.319Z,100040.03
2022-10-16T06:56:20.470Z,100047.59
2022-10-16T07:01:18.959Z,100048.41
2022-10-16T07:06:19.363Z,100041.94
2022-10-16T07:11:18.366Z,100046.53
2022-10-16T07:16:17.471Z,100044.28
2022-10-16T07:21:16.210Z,100058.53
2022-10-16T07:26:12.674Z,100060.81
2022-10-16T07:31:12.289Z,100069.03
2022-10-16T07:36:11.428Z,100076.22
2022-10-16T07:41:14.713Z,100085.13
2022-10-16T07:46:11.179Z,100092.69
2022-10-16T07:51:07.995Z,100098.53
2022-10-16T07:56:06.858Z,100110.84
2022-10-16T08:01:08.543Z,100123.41
2022-10-16T08:06:05.585Z,100111.59
2022-10-16T08:11:04.735Z,100120.41
2022-10-16T08:16:02.207Z,100125.16
2022-10-16T08:21:01.170Z,100135.94
2022-10-16T08:26:04.069Z,100138.28
2022-10-16T08:31:28.094Z,100145.19
2022-10-16T08:36:24.453Z,100151.81
2022-10-16T08:41:55.838Z,100158.38
2022-10-16T08:47:14.099Z,100170.47
2022-10-16T08:52:16.430Z,100183.88
2022-10-16T08:57:24.387Z,100187.69
2022-10-16T09:02:52.063Z,100197.91
2022-10-16T09:13:23.722Z,100208.28
2022-10-16T09:18:23.045Z,100217.44
2022-10-16T09:23:26.271Z,100231.09
2022-10-16T09:28:22.770Z,100230.97
2022-10-16T09:33:21.638Z,100237.25
2022-10-16T09:38:26.012Z,100236.56
2022-10-16T09:43:31.690Z,100244.69
2022-10-16T09:48:39.195Z,100235.47
2022-10-16T09:53:44.837Z,100244.03
2022-10-16T09:58:50.150Z,100247.94
2022-10-16T10:09:57.651Z,100269.81
2022-10-16T10:14:57.328Z,100279.66
2022-10-16T10:20:16.183Z,100281.34
2022-10-16T10:25:12.606Z,100287.81
2022-10-16T10:30:21.159Z,100294.56
2022-10-16T10:35:26.732Z,100296.31
2022-10-16T10:40:31.458Z,100296.16
2022-10-16T10:45:37.298Z,100296.97
2022-10-16T10:50:50.588Z,100314.81
2022-10-16T10:55:55.152Z,100309.41
2022-10-16T11:01:25.221Z,100308.50
2022-10-16T11:06:27.864Z,100320.34
2022-10-16T11:11:30.771Z,100316.97
2022-10-16T11:16:33.788Z,100326.91
2022-10-16T11:21:44.399Z,100315.50
2022-10-16T11:26:43.626Z,100326.63
2022-10-16T11:31:45.722Z,100332.34
2022-10-16T11:36:49.594Z,100336.72
2022-10-16T11:41:57.592Z,100330.63
2022-10-16T11:47:46.442Z,100331.53
2022-10-16T11:52:47.594Z,100336.88
2022-10-16T11:57:52.877Z,100330.34
2022-10-16T12:02:52.221Z,100339.91
2022-10-16T12:08:16.289Z,100340.03
2022-10-16T12:13:33.662Z,100339.00
2022-10-16T12:18:30.118Z,100348.72
2022-10-16T12:23:26.656Z,100345.22
2022-10-16T12:28:28.913Z,100355.22
2022-10-16T12:33:28.943Z,100360.09
2022-10-16T12:38:47.399Z,100347.53
2022-10-16T12:43:48.852Z,100354.59
2022-10-16T12:49:06.087Z,100361.28
2022-10-16T12:54:15.116Z,100371.41
2022-10-16T12:59:41.096Z,100370.22
2022-10-16T13:04:51.965Z,100378.13
2022-10-16T13:10:13.128Z,100383.84
2022-10-16T13:15:36.670Z,100389.41
2022-10-16T13:20:47.633Z,100391.94
2022-10-16T13:26:14.489Z,100392.59
2022-10-16T13:31:18.273Z,100391.91
2022-10-16T13:36:26.581Z,100395.31
2022-10-16T13:41:22.920Z,100404.72
2022-10-16T13:46:26.396Z,100411.44
2022-10-16T13:56:22.614Z,100404.91
2022-10-16T14:01:26.164Z,100404.53
2022-10-16T14:06:25.538Z,100410.59
2022-10-16T14:11:24.714Z,100426.97
2022-10-16T14:16:23.700Z,100430.97
2022-10-16T14:21:20.767Z,100429.78
2022-10-16T14:26:20.459Z,100429.91
2022-10-16T14:31:32.115Z,100425.91
2022-10-16T14:36:30.104Z,100427.56
2022-10-16T14:41:26.468Z,100426.28
2022-10-16T14:46:34.372Z,100421.56
2022-10-16T14:51:30.919Z,100424.88
2022-10-16T14:56:33.099Z,100423.00
2022-10-16T15:01:29.957Z,100416.16
2022-10-16T15:06:26.318Z,100422.94
2022-10-16T15:11:22.702Z,100424.25
2022-10-16T15:16:19.064Z,100431.66
2022-10-16T15:21:33.727Z,100437.75
2022-10-16T15:26:30.948Z,100451.72
2022-10-16T15:31:27.393Z,100447.50
2022-10-16T15:36:37.877Z,100439.38
2022-10-16T15:41:34.498Z,100446.63
2022-10-16T15:46:31.945Z,100440.78
2022-10-16T15:51:30.587Z,100435.91
2022-10-16T15:56:27.153Z,100420.34
2022-10-16T16:01:23.704Z,100413.16
2022-10-16T16:06:20.353Z,100436.28
2022-10-16T16:11:18.189Z,100451.09
2022-10-16T16:16:15.798Z,100440.91
2022-10-16T16:21:13.335Z,100441.56
2022-10-16T16:26:30.440Z,100446.94
2022-10-16T16:31:28.283Z,100440.88
2022-10-16T16:36:26.002Z,100445.00
2022-10-16T16:41:26.699Z,100440.34
2022-10-16T16:46:23.501Z,100440.56
2022-10-16T16:51:20.690Z,100427.50
2022-10-16T16:56:18.333Z,100455.59
2022-10-16T17:01:19.767Z,100454.94
2022-10-16T17:06:20.348Z,100446.63
2022-10-16T17:11:23.524Z,100453.13
2022-10-16T17:16:19.858Z,100449.31
2022-10-16T17:21:16.603Z,100469.53
2022-10-16T17:26:15.767Z,100472.50
2022-10-16T17:31:33.948Z,100485.88
2022-10-16T17:36:33.972Z,100488.69
2022-10-16T17:41:31.235Z,100495.34
2022-10-16T17:46:27.874Z,100495.19
2022-10-16T17:51:27.126Z,100488.16
2022-10-16T17:56:25.147Z,100476.91
2022-10-16T18:01:21.506Z,100492.38
2022-10-16T18:06:22.718Z,100507.19
2022-10-16T18:11:21.126Z,100527.59
2022-10-16T18:16:17.549Z,100530.28
2022-10-16T18:21:16.723Z,100530.28
2022-10-16T18:26:14.017Z,100520.97
2022-10-16T18:31:15.695Z,100529.28
2022-10-16T18:36:12.040Z,100536.25
2022-10-16T18:41:08.748Z,100537.56
2022-10-16T18:46:08.670Z,100533.94
2022-10-16T18:51:15.317Z,100535.34
2022-10-16T18:56:14.987Z,100535.06
2022-10-16T19:01:16.979Z,100521.91
2022-10-16T19:06:16.363Z,100514.00
2022-10-16T19:11:16.695Z,100506.63
2022-10-16T19:16:25.028Z,100516.00
2022-10-16T19:21:21.884Z,100518.28
2022-10-16T19:26:19.519Z,100507.19
2022-10-16T19:31:18.446Z,100518.16
2022-10-16T19:36:14.856Z,100517.31
2022-10-16T19:41:16.674Z,100527.16
2022-10-16T19:46:16.030Z,100522.66
2022-10-16T19:51:17.806Z,100533.81
2022-10-16T19:56:21.318Z,100534.09
2022-10-16T20:01:18.272Z,100517.41
2022-10-16T20:06:16.160Z,100520.72
2022-10-16T20:11:18.765Z,100538.72
2022-10-16T20:16:18.963Z,100558.47
2022-10-16T20:21:17.653Z,100561.63
2022-10-16T20:26:15.303Z,100565.47
2022-10-16T20:31:18.104Z,100582.25
2022-10-16T20:36:15.610Z,100601.28
2022-10-16T20:41:13.090Z,100612.88
2022-10-16T20:46:13.442Z,100584.25
2022-10-16T20:51:31.901Z,100568.19
2022-10-16T20:56:30.535Z,100576.91
2022-10-16T21:01:28.925Z,100587.22
2022-10-16T21:06:26.275Z,100584.22
2022-10-16T21:11:25.902Z,100593.53
2022-10-16T21:16:22.493Z,100595.50
2022-10-16T21:21:28.055Z,100590.56
2022-10-16T21:26:28.287Z,100590.09
2022-10-16T21:31:24.834Z,100606.84
2022-10-16T21:36:26.796Z,100592.09
2022-10-16T21:41:25.982Z,100588.44
2022-10-16T21:46:24.902Z,100595.63
2022-10-16T21:51:26.335Z,100600.97
2022-10-16T21:56:23.210Z,100600.41
2022-10-16T22:01:22.202Z,100607.28
2022-10-16T22:11:24.956Z,100601.53
2022-10-16T22:16:23.686Z,100593.19
2022-10-16T22:21:20.105Z,100596.84
2022-10-16T22:26:16.499Z,100599.66
2022-10-16T22:31:14.270Z,100606.09
2022-10-16T22:36:13.755Z,100600.59
2022-10-16T22:41:12.539Z,100595.34
2022-10-16T22:46:10.920Z,100604.09
2022-10-16T22:51:08.162Z,100603.59
2022-10-16T22:56:04.535Z,100601.59
2022-10-16T23:01:01.197Z,100614.81
2022-10-16T23:05:57.569Z,100613.09
2022-10-16T23:10:54.114Z,100618.09
2022-10-16T23:15:50.448Z,100622.44
2022-10-16T23:20:46.748Z,100631.81
2022-10-16T23:25:49.538Z,100629.59
2022-10-16T23:30:45.869Z,100621.59
2022-10-16T23:35:42.411Z,100617.63
2022-10-16T23:40:38.734Z,100627.38
2022-10-16T23:45:35.043Z,100631.09
2022-10-16T23:50:31.460Z,100623.91
2022-10-16T23:55:27.922Z,100627.44
